sensor_id;sensor_type;location;lat;lon;timestamp;temperature;humidity
42365;DHT22;28498;54.400;18.566;2022-09-03T00:00:15;11.50;99.90
42365;DHT22;28498;54.400;18.566;2022-09-03T00:02:45;11.50;99.90
42365;DHT22;28498;54.400;18.566;2022-09-03T00:05:31;11.60;99.90
42365;DHT22;28498;54.400;18.566;2022-09-03T00:11:00;11.60;99.90
42365;DHT22;28498;54.400;18.566;2022-09-03T00:13:34;11.70;99.90
42365;DHT22;28498;54.400;18.566;2022-09-03T00:16:05;11.80;99.90
42365;DHT22;28498;54.400;18.566;2022-09-03T00:18:42;11.80;99.90
42365;DHT22;28498;54.400;18.566;2022-09-03T00:21:14;11.80;99.90
42365;DHT22;28498;54.400;18.566;2022-09-03T00:23:44;11.90;99.90
42365;DHT22;28498;54.400;18.566;2022-09-03T00:31:21;12.00;99.90
42365;DHT22;28498;54.400;18.566;2022-09-03T00:33:54;12.10;99.90
42365;DHT22;28498;54.400;18.566;2022-09-03T00:36:28;12.10;99.90
42365;DHT22;28498;54.400;18.566;2022-09-03T00:38:58;12.00;99.90
42365;DHT22;28498;54.400;18.566;2022-09-03T00:52:57;11.50;99.90
42365;DHT22;28498;54.400;18.566;2022-09-03T00:55:29;11.50;99.90
42365;DHT22;28498;54.400;18.566;2022-09-03T00:58:24;11.50;99.90
42365;DHT22;28498;54.400;18.566;2022-09-03T01:00:55;11.50;99.90
42365;DHT22;28498;54.400;18.566;2022-09-03T01:06:17;11.50;99.90
42365;DHT22;28498;54.400;18.566;2022-09-03T01:09:05;11.50;99.90
42365;DHT22;28498;54.400;18.566;2022-09-03T01:16:47;11.30;99.90
42365;DHT22;28498;54.400;18.566;2022-09-03T01:19:32;11.30;99.90
42365;DHT22;28498;54.400;18.566;2022-09-03T01:27:45;11.50;99.90
42365;DHT22;28498;54.400;18.566;2022-09-03T01:30:17;11.50;99.90
42365;DHT22;28498;54.400;18.566;2022-09-03T01:38:13;11.60;99.90
42365;DHT22;28498;54.400;18.566;2022-09-03T01:46:28;11.60;99.90
42365;DHT22;28498;54.400;18.566;2022-09-03T01:51:38;11.50;99.90
42365;DHT22;28498;54.400;18.566;2022-09-03T01:54:17;11.50;99.90
42365;DHT22;28498;54.400;18.566;2022-09-03T02:02:27;11.50;99.90
42365;DHT22;28498;54.400;18.566;2022-09-03T02:05:18;11.40;99.90
42365;DHT22;28498;54.400;18.566;2022-09-03T02:07:48;11.40;99.90
42365;DHT22;28498;54.400;18.566;2022-09-03T02:10:27;11.50;99.90
42365;DHT22;28498;54.400;18.566;2022-09-03T02:13:07;11.40;99.90
42365;DHT22;28498;54.400;18.566;2022-09-03T02:15:38;11.30;99.90
42365;DHT22;28498;54.400;18.566;2022-09-03T02:18:10;11.40;99.90
42365;DHT22;28498;54.400;18.566;2022-09-03T02:20:39;11.30;99.90
42365;DHT22;28498;54.400;18.566;2022-09-03T02:23:07;11.20;99.90
42365;DHT22;28498;54.400;18.566;2022-09-03T02:25:40;11.20;99.90
42365;DHT22;28498;54.400;18.566;2022-09-03T02:28:08;11.10;99.90
42365;DHT22;28498;54.400;18.566;2022-09-03T02:30:43;11.10;99.90
42365;DHT22;28498;54.400;18.566;2022-09-03T02:33:10;11.10;99.90
42365;DHT22;28498;54.400;18.566;2022-09-03T02:35:39;11.00;99.90
42365;DHT22;28498;54.400;18.566;2022-09-03T02:38:15;11.00;99.90
42365;DHT22;28498;54.400;18.566;2022-09-03T02:40:43;10.90;99.90
42365;DHT22;28498;54.400;18.566;2022-09-03T02:43:19;10.90;99.90
42365;DHT22;28498;54.400;18.566;2022-09-03T02:45:54;10.80;99.90
42365;DHT22;28498;54.400;18.566;2022-09-03T02:48:23;10.80;99.90
42365;DHT22;28498;54.400;18.566;2022-09-03T02:50:51;10.80;99.90
42365;DHT22;28498;54.400;18.566;2022-09-03T02:53:18;10.80;99.90
42365;DHT22;28498;54.400;18.566;2022-09-03T02:55:45;10.80;99.90
42365;DHT22;28498;54.400;18.566;2022-09-03T02:58:13;10.80;99.90
42365;DHT22;28498;54.400;18.566;2022-09-03T03:00:40;10.80;99.90
42365;DHT22;28498;54.400;18.566;2022-09-03T03:03:06;10.80;99.90
42365;DHT22;28498;54.400;18.566;2022-09-03T03:05:44;10.90;99.90
42365;DHT22;28498;54.400;18.566;2022-09-03T03:08:12;10.90;99.90
42365;DHT22;28498;54.400;18.566;2022-09-03T03:10:41;11.00;99.90
42365;DHT22;28498;54.400;18.566;2022-09-03T03:13:12;11.00;99.90
42365;DHT22;28498;54.400;18.566;2022-09-03T03:15:40;11.00;99.90
42365;DHT22;28498;54.400;18.566;2022-09-03T03:18:07;11.10;99.90
42365;DHT22;28498;54.400;18.566;2022-09-03T03:20:38;11.10;99.90
42365;DHT22;28498;54.400;18.566;2022-09-03T03:23:06;11.10;99.90
42365;DHT22;28498;54.400;18.566;2022-09-03T03:25:34;11.10;99.90
42365;DHT22;28498;54.400;18.566;2022-09-03T03:28:03;11.10;99.90
42365;DHT22;28498;54.400;18.566;2022-09-03T03:30:31;11.10;99.90
42365;DHT22;28498;54.400;18.566;2022-09-03T03:32:58;11.10;99.90
42365;DHT22;28498;54.400;18.566;2022-09-03T03:35:26;11.00;99.90
42365;DHT22;28498;54.400;18.566;2022-09-03T03:37:57;11.00;99.90
42365;DHT22;28498;54.400;18.566;2022-09-03T03:40:24;11.00;99.90
42365;DHT22;28498;54.400;18.566;2022-09-03T03:42:51;10.90;99.90
42365;DHT22;28498;54.400;18.566;2022-09-03T03:45:19;10.90;99.90
42365;DHT22;28498;54.400;18.566;2022-09-03T03:47:46;10.80;99.90
42365;DHT22;28498;54.400;18.566;2022-09-03T03:50:13;10.70;99.90
42365;DHT22;28498;54.400;18.566;2022-09-03T03:52:40;10.70;99.90
42365;DHT22;28498;54.400;18.566;2022-09-03T03:55:07;10.60;99.90
42365;DHT22;28498;54.400;18.566;2022-09-03T03:57:34;10.60;99.90
42365;DHT22;28498;54.400;18.566;2022-09-03T04:00:02;10.60;99.90
42365;DHT22;28498;54.400;18.566;2022-09-03T04:02:29;10.60;99.90
42365;DHT22;28498;54.400;18.566;2022-09-03T04:04:56;10.50;99.90
42365;DHT22;28498;54.400;18.566;2022-09-03T04:07:24;10.60;99.90
42365;DHT22;28498;54.400;18.566;2022-09-03T04:09:51;10.60;99.90
42365;DHT22;28498;54.400;18.566;2022-09-03T04:12:18;10.60;99.90
42365;DHT22;28498;54.400;18.566;2022-09-03T04:14:45;10.50;99.90
42365;DHT22;28498;54.400;18.566;2022-09-03T04:17:12;10.40;99.90
42365;DHT22;28498;54.400;18.566;2022-09-03T04:19:38;10.30;99.90
42365;DHT22;28498;54.400;18.566;2022-09-03T04:22:05;10.30;99.90
42365;DHT22;28498;54.400;18.566;2022-09-03T04:24:32;10.20;99.90
42365;DHT22;28498;54.400;18.566;2022-09-03T04:26:59;10.20;99.90
42365;DHT22;28498;54.400;18.566;2022-09-03T04:29:26;10.20;99.90
42365;DHT22;28498;54.400;18.566;2022-09-03T04:31:56;10.20;99.90
42365;DHT22;28498;54.400;18.566;2022-09-03T04:34:42;10.20;99.90
42365;DHT22;28498;54.400;18.566;2022-09-03T04:37:09;10.30;99.90
42365;DHT22;28498;54.400;18.566;2022-09-03T04:39:36;10.30;99.90
42365;DHT22;28498;54.400;18.566;2022-09-03T04:42:03;10.40;99.90
42365;DHT22;28498;54.400;18.566;2022-09-03T04:44:30;10.40;99.90
42365;DHT22;28498;54.400;18.566;2022-09-03T04:46:57;10.50;99.90
42365;DHT22;28498;54.400;18.566;2022-09-03T04:49:24;10.60;99.90
42365;DHT22;28498;54.400;18.566;2022-09-03T04:51:51;10.60;99.90
42365;DHT22;28498;54.400;18.566;2022-09-03T04:54:17;10.60;99.90
42365;DHT22;28498;54.400;18.566;2022-09-03T04:56:44;10.60;99.90
42365;DHT22;28498;54.400;18.566;2022-09-03T04:59:11;10.60;99.90
42365;DHT22;28498;54.400;18.566;2022-09-03T05:01:39;10.60;99.90
42365;DHT22;28498;54.400;18.566;2022-09-03T05:04:07;10.70;99.90
42365;DHT22;28498;54.400;18.566;2022-09-03T05:06:35;10.70;99.90
42365;DHT22;28498;54.400;18.566;2022-09-03T05:09:03;10.70;99.90
42365;DHT22;28498;54.400;18.566;2022-09-03T05:11:31;10.60;99.90
42365;DHT22;28498;54.400;18.566;2022-09-03T05:13:58;10.50;99.90
42365;DHT22;28498;54.400;18.566;2022-09-03T05:16:27;10.50;99.90
42365;DHT22;28498;54.400;18.566;2022-09-03T05:18:57;10.50;99.90
42365;DHT22;28498;54.400;18.566;2022-09-03T05:21:28;10.50;99.90
42365;DHT22;28498;54.400;18.566;2022-09-03T05:23:56;10.50;99.90
42365;DHT22;28498;54.400;18.566;2022-09-03T05:26:25;10.50;99.90
42365;DHT22;28498;54.400;18.566;2022-09-03T05:28:57;10.50;99.90
42365;DHT22;28498;54.400;18.566;2022-09-03T05:31:27;10.50;99.90
42365;DHT22;28498;54.400;18.566;2022-09-03T05:33:57;10.40;99.90
42365;DHT22;28498;54.400;18.566;2022-09-03T05:36:26;10.40;99.90
42365;DHT22;28498;54.400;18.566;2022-09-03T05:38:54;10.40;99.90
42365;DHT22;28498;54.400;18.566;2022-09-03T05:41:24;10.40;99.90
42365;DHT22;28498;54.400;18.566;2022-09-03T05:43:53;10.50;99.90
42365;DHT22;28498;54.400;18.566;2022-09-03T05:46:33;10.50;99.90
42365;DHT22;28498;54.400;18.566;2022-09-03T05:49:05;10.50;99.90
42365;DHT22;28498;54.400;18.566;2022-09-03T05:51:34;10.50;99.90
42365;DHT22;28498;54.400;18.566;2022-09-03T05:54:01;10.40;99.90
42365;DHT22;28498;54.400;18.566;2022-09-03T05:56:31;10.50;99.90
42365;DHT22;28498;54.400;18.566;2022-09-03T05:58:59;10.70;99.90
42365;DHT22;28498;54.400;18.566;2022-09-03T06:01:31;10.80;99.90
42365;DHT22;28498;54.400;18.566;2022-09-03T06:04:02;10.90;99.90
42365;DHT22;28498;54.400;18.566;2022-09-03T06:06:31;11.20;99.90
42365;DHT22;28498;54.400;18.566;2022-09-03T06:09:00;11.40;99.90
42365;DHT22;28498;54.400;18.566;2022-09-03T06:11:29;11.60;99.90
42365;DHT22;28498;54.400;18.566;2022-09-03T06:13:58;11.90;99.90
42365;DHT22;28498;54.400;18.566;2022-09-03T06:16:28;11.90;99.90
42365;DHT22;28498;54.400;18.566;2022-09-03T06:18:58;12.20;99.90
42365;DHT22;28498;54.400;18.566;2022-09-03T06:21:25;12.30;99.90
42365;DHT22;28498;54.400;18.566;2022-09-03T06:23:54;12.30;99.90
42365;DHT22;28498;54.400;18.566;2022-09-03T06:26:26;12.40;99.90
42365;DHT22;28498;54.400;18.566;2022-09-03T06:28:56;12.50;99.90
42365;DHT22;28498;54.400;18.566;2022-09-03T06:31:24;12.70;99.90
42365;DHT22;28498;54.400;18.566;2022-09-03T06:33:52;12.80;99.90
42365;DHT22;28498;54.400;18.566;2022-09-03T06:36:21;12.90;99.90
42365;DHT22;28498;54.400;18.566;2022-09-03T06:38:51;13.10;99.90
42365;DHT22;28498;54.400;18.566;2022-09-03T06:41:23;13.10;99.90
42365;DHT22;28498;54.400;18.566;2022-09-03T06:43:57;13.30;99.90
42365;DHT22;28498;54.400;18.566;2022-09-03T06:46:33;13.70;99.90
42365;DHT22;28498;54.400;18.566;2022-09-03T06:49:01;13.60;99.90
42365;DHT22;28498;54.400;18.566;2022-09-03T06:51:30;13.70;99.90
42365;DHT22;28498;54.400;18.566;2022-09-03T06:54:03;13.90;99.90
42365;DHT22;28498;54.400;18.566;2022-09-03T06:56:30;14.30;99.90
42365;DHT22;28498;54.400;18.566;2022-09-03T06:59:08;14.50;99.90
42365;DHT22;28498;54.400;18.566;2022-09-03T07:01:39;14.40;99.90
42365;DHT22;28498;54.400;18.566;2022-09-03T07:04:11;14.50;99.90
42365;DHT22;28498;54.400;18.566;2022-09-03T07:06:39;14.50;99.90
42365;DHT22;28498;54.400;18.566;2022-09-03T07:09:08;14.40;99.90
42365;DHT22;28498;54.400;18.566;2022-09-03T07:11:36;14.40;99.90
42365;DHT22;28498;54.400;18.566;2022-09-03T07:14:04;13.90;99.90
42365;DHT22;28498;54.400;18.566;2022-09-03T07:16:34;14.00;99.90
42365;DHT22;28498;54.400;18.566;2022-09-03T07:19:02;14.10;99.90
42365;DHT22;28498;54.400;18.566;2022-09-03T07:21:31;14.10;99.90
42365;DHT22;28498;54.400;18.566;2022-09-03T07:23:59;14.10;99.90
42365;DHT22;28498;54.400;18.566;2022-09-03T07:26:29;13.90;99.90
42365;DHT22;28498;54.400;18.566;2022-09-03T07:28:56;13.90;99.90
42365;DHT22;28498;54.400;18.566;2022-09-03T07:31:26;14.10;99.90
42365;DHT22;28498;54.400;18.566;2022-09-03T07:34:00;14.50;99.90
42365;DHT22;28498;54.400;18.566;2022-09-03T07:36:41;14.60;99.90
42365;DHT22;28498;54.400;18.566;2022-09-03T07:39:10;14.60;99.90
42365;DHT22;28498;54.400;18.566;2022-09-03T07:41:37;14.60;99.90
42365;DHT22;28498;54.400;18.566;2022-09-03T07:44:04;14.60;99.90
42365;DHT22;28498;54.400;18.566;2022-09-03T07:46:36;14.70;99.90
42365;DHT22;28498;54.400;18.566;2022-09-03T07:49:04;15.00;99.90
42365;DHT22;28498;54.400;18.566;2022-09-03T07:51:37;15.10;99.90
42365;DHT22;28498;54.400;18.566;2022-09-03T07:54:06;15.20;99.90
42365;DHT22;28498;54.400;18.566;2022-09-03T07:56:34;15.30;99.90
42365;DHT22;28498;54.400;18.566;2022-09-03T07:59:02;15.40;99.90
42365;DHT22;28498;54.400;18.566;2022-09-03T08:01:30;15.30;99.90
42365;DHT22;28498;54.400;18.566;2022-09-03T08:03:59;15.40;99.90
42365;DHT22;28498;54.400;18.566;2022-09-03T08:06:28;15.80;99.90
42365;DHT22;28498;54.400;18.566;2022-09-03T08:08:57;16.00;99.90
42365;DHT22;28498;54.400;18.566;2022-09-03T08:11:32;16.20;99.90
42365;DHT22;28498;54.400;18.566;2022-09-03T08:14:03;16.60;99.90
42365;DHT22;28498;54.400;18.566;2022-09-03T08:16:37;16.90;99.90
42365;DHT22;28498;54.400;18.566;2022-09-03T08:19:05;17.20;99.90
42365;DHT22;28498;54.400;18.566;2022-09-03T08:21:33;17.20;99.90
42365;DHT22;28498;54.400;18.566;2022-09-03T08:24:00;17.10;99.90
42365;DHT22;28498;54.400;18.566;2022-09-03T08:26:33;17.00;99.90
42365;DHT22;28498;54.400;18.566;2022-09-03T08:29:01;16.60;99.90
42365;DHT22;28498;54.400;18.566;2022-09-03T08:31:29;16.50;99.90
42365;DHT22;28498;54.400;18.566;2022-09-03T08:33:59;16.50;99.90
42365;DHT22;28498;54.400;18.566;2022-09-03T08:36:36;16.30;99.90
42365;DHT22;28498;54.400;18.566;2022-09-03T08:39:06;16.10;49.10
42365;DHT22;28498;54.400;18.566;2022-09-03T08:46:50;15.80;1.00
42365;DHT22;28498;54.400;18.566;2022-09-03T08:52:01;15.70;99.90
42365;DHT22;28498;54.400;18.566;2022-09-03T08:54:30;15.50;99.90
42365;DHT22;28498;54.400;18.566;2022-09-03T08:57:01;15.30;99.90
42365;DHT22;28498;54.400;18.566;2022-09-03T08:59:29;15.30;83.60
42365;DHT22;28498;54.400;18.566;2022-09-03T09:02:02;15.40;38.80
42365;DHT22;28498;54.400;18.566;2022-09-03T09:07:19;16.00;99.90
42365;DHT22;28498;54.400;18.566;2022-09-03T09:10:36;16.20;99.90
42365;DHT22;28498;54.400;18.566;2022-09-03T09:21:11;15.70;99.90
42365;DHT22;28498;54.400;18.566;2022-09-03T09:23:47;15.80;99.90
42365;DHT22;28498;54.400;18.566;2022-09-03T09:26:16;15.90;99.90
42365;DHT22;28498;54.400;18.566;2022-09-03T09:28:46;15.70;11.80
42365;DHT22;28498;54.400;18.566;2022-09-03T09:31:16;15.90;99.90
42365;DHT22;28498;54.400;18.566;2022-09-03T09:33:45;16.10;99.90
42365;DHT22;28498;54.400;18.566;2022-09-03T09:36:14;16.00;99.90
42365;DHT22;28498;54.400;18.566;2022-09-03T09:38:43;16.00;99.90
42365;DHT22;28498;54.400;18.566;2022-09-03T09:41:16;16.10;1.00
42365;DHT22;28498;54.400;18.566;2022-09-03T09:43:44;16.00;99.90
42365;DHT22;28498;54.400;18.566;2022-09-03T09:46:19;15.90;99.90
42365;DHT22;28498;54.400;18.566;2022-09-03T09:48:54;16.00;99.90
42365;DHT22;28498;54.400;18.566;2022-09-03T09:51:24;16.20;99.90
42365;DHT22;28498;54.400;18.566;2022-09-03T09:54:14;16.30;99.90
42365;DHT22;28498;54.400;18.566;2022-09-03T09:56:46;16.40;99.90
42365;DHT22;28498;54.400;18.566;2022-09-03T09:59:24;16.20;99.90
42365;DHT22;28498;54.400;18.566;2022-09-03T10:01:50;16.30;99.90
42365;DHT22;28498;54.400;18.566;2022-09-03T10:04:31;15.90;46.90
42365;DHT22;28498;54.400;18.566;2022-09-03T10:10:18;16.00;99.90
42365;DHT22;28498;54.400;18.566;2022-09-03T10:13:09;16.20;1.00
42365;DHT22;28498;54.400;18.566;2022-09-03T10:15:51;16.50;95.90
42365;DHT22;28498;54.400;18.566;2022-09-03T10:18:46;16.60;99.90
42365;DHT22;28498;54.400;18.566;2022-09-03T10:26:56;16.80;99.90
42365;DHT22;28498;54.400;18.566;2022-09-03T10:29:24;16.50;99.90
42365;DHT22;28498;54.400;18.566;2022-09-03T10:35:12;16.30;99.90
42365;DHT22;28498;54.400;18.566;2022-09-03T10:45:55;16.70;99.90
42365;DHT22;28498;54.400;18.566;2022-09-03T10:53:50;16.60;99.90
42365;DHT22;28498;54.400;18.566;2022-09-03T10:56:31;16.40;1.00
42365;DHT22;28498;54.400;18.566;2022-09-03T11:04:57;17.10;99.90
42365;DHT22;28498;54.400;18.566;2022-09-03T11:07:33;17.00;99.90
42365;DHT22;28498;54.400;18.566;2022-09-03T11:13:01;16.70;1.00
42365;DHT22;28498;54.400;18.566;2022-09-03T11:15:33;16.40;1.00
42365;DHT22;28498;54.400;18.566;2022-09-03T11:18:17;16.30;99.90
42365;DHT22;28498;54.400;18.566;2022-09-03T11:20:49;16.10;99.90
42365;DHT22;28498;54.400;18.566;2022-09-03T11:23:17;16.10;99.90
42365;DHT22;28498;54.400;18.566;2022-09-03T11:25:50;16.20;1.00
42365;DHT22;28498;54.400;18.566;2022-09-03T11:28:53;16.10;1.00
42365;DHT22;28498;54.400;18.566;2022-09-03T11:34:26;16.20;99.90
42365;DHT22;28498;54.400;18.566;2022-09-03T11:37:14;16.40;1.00
42365;DHT22;28498;54.400;18.566;2022-09-03T11:39:43;16.30;99.90
42365;DHT22;28498;54.400;18.566;2022-09-03T11:42:19;16.10;99.90
42365;DHT22;28498;54.400;18.566;2022-09-03T11:44:50;16.00;28.20
42365;DHT22;28498;54.400;18.566;2022-09-03T11:47:37;16.50;1.00
42365;DHT22;28498;54.400;18.566;2022-09-03T11:50:29;16.80;99.90
42365;DHT22;28498;54.400;18.566;2022-09-03T11:58:34;16.80;99.90
42365;DHT22;28498;54.400;18.566;2022-09-03T12:01:04;16.80;99.90
42365;DHT22;28498;54.400;18.566;2022-09-03T12:09:50;16.60;99.90
42365;DHT22;28498;54.400;18.566;2022-09-03T12:15:41;16.40;1.00
42365;DHT22;28498;54.400;18.566;2022-09-03T12:18:25;16.30;99.90
42365;DHT22;28498;54.400;18.566;2022-09-03T12:23:34;16.40;1.00
42365;DHT22;28498;54.400;18.566;2022-09-03T12:26:11;16.30;94.50
42365;DHT22;28498;54.400;18.566;2022-09-03T12:28:47;16.20;17.10
42365;DHT22;28498;54.400;18.566;2022-09-03T12:34:00;16.20;99.90
42365;DHT22;28498;54.400;18.566;2022-09-03T12:36:51;16.40;99.90
42365;DHT22;28498;54.400;18.566;2022-09-03T12:39:23;16.40;68.60
42365;DHT22;28498;54.400;18.566;2022-09-03T12:42:17;16.20;99.90
42365;DHT22;28498;54.400;18.566;2022-09-03T12:44:45;16.10;2.90
42365;DHT22;28498;54.400;18.566;2022-09-03T12:50:06;16.30;99.90
42365;DHT22;28498;54.400;18.566;2022-09-03T12:52:40;16.20;1.00
42365;DHT22;28498;54.400;18.566;2022-09-03T12:55:48;16.00;99.10
42365;DHT22;28498;54.400;18.566;2022-09-03T12:58:46;16.10;1.00
42365;DHT22;28498;54.400;18.566;2022-09-03T13:01:20;16.10;99.90
42365;DHT22;28498;54.400;18.566;2022-09-03T13:04:08;16.00;99.90
42365;DHT22;28498;54.400;18.566;2022-09-03T13:06:55;15.90;99.90
42365;DHT22;28498;54.400;18.566;2022-09-03T13:09:27;16.10;60.30
42365;DHT22;28498;54.400;18.566;2022-09-03T13:11:58;16.20;99.90
42365;DHT22;28498;54.400;18.566;2022-09-03T13:14:25;16.10;99.90
42365;DHT22;28498;54.400;18.566;2022-09-03T13:17:10;16.00;99.90
42365;DHT22;28498;54.400;18.566;2022-09-03T13:22:38;16.00;99.90
42365;DHT22;28498;54.400;18.566;2022-09-03T13:28:22;16.10;99.90
42365;DHT22;28498;54.400;18.566;2022-09-03T13:31:07;16.20;99.90
42365;DHT22;28498;54.400;18.566;2022-09-03T13:33:42;16.40;99.90
42365;DHT22;28498;54.400;18.566;2022-09-03T13:36:19;16.50;74.50
42365;DHT22;28498;54.400;18.566;2022-09-03T13:41:36;16.20;99.90
42365;DHT22;28498;54.400;18.566;2022-09-03T13:44:18;16.40;30.10
42365;DHT22;28498;54.400;18.566;2022-09-03T13:46:52;16.50;4.30
42365;DHT22;28498;54.400;18.566;2022-09-03T13:49:42;16.50;99.90
42365;DHT22;28498;54.400;18.566;2022-09-03T13:52:49;16.40;48.00
42365;DHT22;28498;54.400;18.566;2022-09-03T13:58:20;16.60;99.90
42365;DHT22;28498;54.400;18.566;2022-09-03T14:01:21;16.30;1.00
42365;DHT22;28498;54.400;18.566;2022-09-03T14:03:57;16.50;1.00
42365;DHT22;28498;54.400;18.566;2022-09-03T14:09:38;16.60;9.30
42365;DHT22;28498;54.400;18.566;2022-09-03T14:15:08;16.60;99.90
42365;DHT22;28498;54.400;18.566;2022-09-03T14:21:05;16.20;99.90
42365;DHT22;28498;54.400;18.566;2022-09-03T14:23:50;16.40;99.90
42365;DHT22;28498;54.400;18.566;2022-09-03T14:26:28;16.80;99.90
42365;DHT22;28498;54.400;18.566;2022-09-03T14:35:11;16.70;99.90
42365;DHT22;28498;54.400;18.566;2022-09-03T14:40:44;16.10;99.90
42365;DHT22;28498;54.400;18.566;2022-09-03T14:46:34;16.90;99.90
42365;DHT22;28498;54.400;18.566;2022-09-03T14:55:19;17.50;13.60
42365;DHT22;28498;54.400;18.566;2022-09-03T15:09:27;18.50;1.00
42365;DHT22;28498;54.400;18.566;2022-09-03T15:12:20;18.00;1.00
42365;DHT22;28498;54.400;18.566;2022-09-03T15:14:56;17.70;1.00
42365;DHT22;28498;54.400;18.566;2022-09-03T15:20:35;18.20;1.00
42365;DHT22;28498;54.400;18.566;2022-09-03T15:29:20;17.90;1.00
42365;DHT22;28498;54.400;18.566;2022-09-03T15:37:54;17.20;1.00
42365;DHT22;28498;54.400;18.566;2022-09-03T15:43:26;16.90;1.00
42365;DHT22;28498;54.400;18.566;2022-09-03T15:46:05;16.70;1.00
42365;DHT22;28498;54.400;18.566;2022-09-03T15:48:49;16.70;1.00
42365;DHT22;28498;54.400;18.566;2022-09-03T15:51:25;16.40;1.00
42365;DHT22;28498;54.400;18.566;2022-09-03T15:54:16;16.50;1.00
42365;DHT22;28498;54.400;18.566;2022-09-03T15:57:06;16.50;1.00
42365;DHT22;28498;54.400;18.566;2022-09-03T15:59:49;16.60;1.00
42365;DHT22;28498;54.400;18.566;2022-09-03T16:10:18;17.30;1.00
42365;DHT22;28498;54.400;18.566;2022-09-03T16:13:02;17.10;1.00
42365;DHT22;28498;54.400;18.566;2022-09-03T16:15:43;16.50;1.00
42365;DHT22;28498;54.400;18.566;2022-09-03T16:21:38;16.20;99.90
42365;DHT22;28498;54.400;18.566;2022-09-03T16:27:21;15.90;99.90
42365;DHT22;28498;54.400;18.566;2022-09-03T16:30:43;15.80;1.00
42365;DHT22;28498;54.400;18.566;2022-09-03T16:42:03;15.30;1.00
42365;DHT22;28498;54.400;18.566;2022-09-03T16:50:20;15.20;99.90
42365;DHT22;28498;54.400;18.566;2022-09-03T16:53:12;15.20;1.00
42365;DHT22;28498;54.400;18.566;2022-09-03T16:55:55;15.00;65.80
42365;DHT22;28498;54.400;18.566;2022-09-03T17:07:05;14.80;99.90
42365;DHT22;28498;54.400;18.566;2022-09-03T17:09:59;14.80;20.80
42365;DHT22;28498;54.400;18.566;2022-09-03T17:12:47;14.70;1.00
42365;DHT22;28498;54.400;18.566;2022-09-03T17:15:58;14.60;99.90
42365;DHT22;28498;54.400;18.566;2022-09-03T17:18:52;14.40;99.90
42365;DHT22;28498;54.400;18.566;2022-09-03T17:27:25;13.90;99.90
42365;DHT22;28498;54.400;18.566;2022-09-03T17:36:16;13.90;99.90
42365;DHT22;28498;54.400;18.566;2022-09-03T17:41:51;14.00;99.90
42365;DHT22;28498;54.400;18.566;2022-09-03T17:47:16;14.00;99.90
42365;DHT22;28498;54.400;18.566;2022-09-03T17:50:17;13.90;99.90
42365;DHT22;28498;54.400;18.566;2022-09-03T17:52:50;13.80;99.90
42365;DHT22;28498;54.400;18.566;2022-09-03T17:55:32;13.80;99.90
42365;DHT22;28498;54.400;18.566;2022-09-03T17:58:18;13.60;46.50
42365;DHT22;28498;54.400;18.566;2022-09-03T18:06:33;13.80;1.00
42365;DHT22;28498;54.400;18.566;2022-09-03T18:11:40;13.80;99.90
42365;DHT22;28498;54.400;18.566;2022-09-03T18:16:53;13.80;1.00
42365;DHT22;28498;54.400;18.566;2022-09-03T18:21:58;13.60;99.90
42365;DHT22;28498;54.400;18.566;2022-09-03T18:24:53;13.40;99.90
42365;DHT22;28498;54.400;18.566;2022-09-03T18:27:46;13.20;99.90
42365;DHT22;28498;54.400;18.566;2022-09-03T18:34:16;13.00;99.90
42365;DHT22;28498;54.400;18.566;2022-09-03T18:37:03;12.90;99.90
42365;DHT22;28498;54.400;18.566;2022-09-03T18:39:48;12.80;99.90
42365;DHT22;28498;54.400;18.566;2022-09-03T18:46:27;12.40;1.00
42365;DHT22;28498;54.400;18.566;2022-09-03T18:49:54;12.20;1.00
42365;DHT22;28498;54.400;18.566;2022-09-03T18:59:26;11.60;1.00
42365;DHT22;28498;54.400;18.566;2022-09-03T19:05:35;11.50;1.00
42365;DHT22;28498;54.400;18.566;2022-09-03T19:08:27;11.30;1.00
42365;DHT22;28498;54.400;18.566;2022-09-03T19:11:36;11.20;39.80
42365;DHT22;28498;54.400;18.566;2022-09-03T19:15:19;11.00;44.00
42365;DHT22;28498;54.400;18.566;2022-09-03T19:20:48;10.80;54.90
42365;DHT22;28498;54.400;18.566;2022-09-03T19:23:35;10.70;93.30
42365;DHT22;28498;54.400;18.566;2022-09-03T19:26:44;10.70;99.90
42365;DHT22;28498;54.400;18.566;2022-09-03T19:30:25;10.80;72.90
42365;DHT22;28498;54.400;18.566;2022-09-03T19:33:31;10.70;68.30
42365;DHT22;28498;54.400;18.566;2022-09-03T19:36:33;10.60;86.30
42365;DHT22;28498;54.400;18.566;2022-09-03T19:52:54;10.30;99.90
42365;DHT22;28498;54.400;18.566;2022-09-03T19:55:48;10.40;99.90
42365;DHT22;28498;54.400;18.566;2022-09-03T19:58:40;10.30;99.90
42365;DHT22;28498;54.400;18.566;2022-09-03T20:01:33;10.20;99.90
42365;DHT22;28498;54.400;18.566;2022-09-03T20:04:26;10.10;99.90
42365;DHT22;28498;54.400;18.566;2022-09-03T20:07:14;10.00;99.90
42365;DHT22;28498;54.400;18.566;2022-09-03T20:10:00;10.00;99.90
42365;DHT22;28498;54.400;18.566;2022-09-03T20:21:07;10.00;99.90
42365;DHT22;28498;54.400;18.566;2022-09-03T20:26:56;10.00;99.90
42365;DHT22;28498;54.400;18.566;2022-09-03T20:29:41;9.90;99.90
42365;DHT22;28498;54.400;18.566;2022-09-03T20:46:46;9.80;99.90
42365;DHT22;28498;54.400;18.566;2022-09-03T20:51:56;9.80;99.90
42365;DHT22;28498;54.400;18.566;2022-09-03T20:54:39;9.80;99.90
42365;DHT22;28498;54.400;18.566;2022-09-03T21:00:15;9.80;99.90
42365;DHT22;28498;54.400;18.566;2022-09-03T21:10:56;9.90;99.90
42365;DHT22;28498;54.400;18.566;2022-09-03T21:14:00;9.90;99.90
42365;DHT22;28498;54.400;18.566;2022-09-03T21:20:43;9.80;99.90
42365;DHT22;28498;54.400;18.566;2022-09-03T21:23:09;10.00;99.90
42365;DHT22;28498;54.400;18.566;2022-09-03T21:25:43;10.10;99.90
42365;DHT22;28498;54.400;18.566;2022-09-03T21:28:16;10.00;99.90
42365;DHT22;28498;54.400;18.566;2022-09-03T21:30:49;10.00;99.90
42365;DHT22;28498;54.400;18.566;2022-09-03T21:33:22;10.00;99.90
42365;DHT22;28498;54.400;18.566;2022-09-03T21:36:11;9.90;99.90
42365;DHT22;28498;54.400;18.566;2022-09-03T21:38:45;9.90;99.90
42365;DHT22;28498;54.400;18.566;2022-09-03T21:42:04;10.00;99.90
42365;DHT22;28498;54.400;18.566;2022-09-03T21:47:14;10.00;99.90
42365;DHT22;28498;54.400;18.566;2022-09-03T21:50:07;10.00;99.90
42365;DHT22;28498;54.400;18.566;2022-09-03T21:53:06;9.90;99.90
42365;DHT22;28498;54.400;18.566;2022-09-03T22:01:20;9.80;99.90
42365;DHT22;28498;54.400;18.566;2022-09-03T22:03:52;9.70;99.90
42365;DHT22;28498;54.400;18.566;2022-09-03T22:09:15;9.70;99.90